Brasilia, Brazil

8:21 AM BRST on October 25, 2014 (GMT -0200)
Pres Juscelino Kubitschek International | Change Station
CLOSE
Current Station
Airport
Location: Brasilia,
Elevation: 3481 ft
Nearby Weather Stations

Elev 3481 ft 15.87 °S, 47.93 °W | Updated 21 minutes ago

Mostly Cloudy
Mostly Cloudy
73 °F
Feels Like 73 °F
N
0
Wind Variable Wind from North

Today
High -- | Low -- °F
--% Chance of Precip.
Yesterday
High -- | Low -- °F
Precip. -- in
6:38 AM 7:13 PM
New Moon, 2% visible
Pressure 30.04 in
Visibility 6.2 miles
Clouds Few 3000 ft
Mostly Cloudy 8000 ft
Dew Point 61 °F
Humidity 65%
Rainfall 0.00 in
Snow Depth Not available.
UV 1 out of 12
Pollen Not available.
Air Quality Not available.
Flu Activity Not available.
METAR SBBR 251000Z 00000KT 9999 FEW030 BKN080 23/16 Q1017

More Conditions Fewer Conditions

Pressure 30.04 in
Visibility 6.2 miles
Clouds Few 3000 ft
Mostly Cloudy 8000 ft
Dew Point 61 °F
Humidity 65%
Rainfall 0.00 in
Snow Depth Not available.
UV 1 out of 12
Pollen Not available.
Air Quality Not available.
Flu Activity Not available.
METAR SBBR 251000Z 00000KT 9999 FEW030 BKN080 23/16 Q1017

More Conditions Fewer Conditions

10-Day Weather Forecast

Almanac

Astronomy

Oct. 25, 2014 Rise Set
Actual Time 6:38 AM BRST 7:13 PM BRST
Civil Twilight 6:16 AM BRST 7:35 PM BRST
Nautical Twilight 5:50 AM BRST 8:01 PM BRST
Astronomical Twilight 5:24 AM BRST 8:27 PM BRST
Moon 7:51 AM BRST 8:54 PM BRST
Length of Visible Light 13h 19m
Length of Day
12h 35m
Tomorrow will be 0m 50s longer.
New Moon, 2% of the Moon is Illuminated
Today
New Moon
Oct 30
First Quarter
Nov 6
Full
Nov 14
Last Quarter
Nov 22
New

Yesterday's Extremes

Country Highs Country Lows

Community

WunderPhotos

Upload Photos

1,764,806 photos uploaded!

Nearby

Snow Depth

Not available.

Earthquake Activity

City Distance Mag. Time & Date
No recent earthquake activity has been reported nearby.
Minimum magnitude displayed is 2.5.

Coastal Water Temperatures

Place Temperature
No Stations Reporting

Nearby Weather Stations